sensor_id;sensor_type;location;lat;lon;timestamp;temperature;humidity
16736;DHT22;17990;49.548;9.730;2023-06-10T00:01:56;14.70;99.90
16736;DHT22;17990;49.548;9.730;2023-06-10T00:04:25;14.70;99.90
16736;DHT22;17990;49.548;9.730;2023-06-10T00:06:52;14.70;99.90
16736;DHT22;17990;49.548;9.730;2023-06-10T00:09:19;14.70;99.90
16736;DHT22;17990;49.548;9.730;2023-06-10T00:11:47;14.70;99.90
16736;DHT22;17990;49.548;9.730;2023-06-10T00:14:14;14.60;99.90
16736;DHT22;17990;49.548;9.730;2023-06-10T00:16:42;14.60;99.90
16736;DHT22;17990;49.548;9.730;2023-06-10T00:19:10;14.60;99.90
16736;DHT22;17990;49.548;9.730;2023-06-10T00:21:39;14.60;99.90
16736;DHT22;17990;49.548;9.730;2023-06-10T00:24:07;14.60;99.90
16736;DHT22;17990;49.548;9.730;2023-06-10T00:26:37;14.60;99.90
16736;DHT22;17990;49.548;9.730;2023-06-10T00:29:04;14.60;99.90
16736;DHT22;17990;49.548;9.730;2023-06-10T00:31:31;14.60;99.90
16736;DHT22;17990;49.548;9.730;2023-06-10T00:33:59;14.50;99.90
16736;DHT22;17990;49.548;9.730;2023-06-10T00:36:26;14.50;99.90
16736;DHT22;17990;49.548;9.730;2023-06-10T00:38:53;14.40;99.90
16736;DHT22;17990;49.548;9.730;2023-06-10T00:41:20;14.30;99.90
16736;DHT22;17990;49.548;9.730;2023-06-10T00:43:47;14.20;99.90
16736;DHT22;17990;49.548;9.730;2023-06-10T00:46:14;14.10;99.90
16736;DHT22;17990;49.548;9.730;2023-06-10T00:48:43;13.90;99.90
16736;DHT22;17990;49.548;9.730;2023-06-10T00:51:12;13.90;99.90
16736;DHT22;17990;49.548;9.730;2023-06-10T00:53:40;14.00;99.90
16736;DHT22;17990;49.548;9.730;2023-06-10T00:56:07;14.00;99.90
16736;DHT22;17990;49.548;9.730;2023-06-10T00:58:35;14.00;99.90
16736;DHT22;17990;49.548;9.730;2023-06-10T01:01:02;14.00;99.90
16736;DHT22;17990;49.548;9.730;2023-06-10T01:03:30;14.00;99.90
16736;DHT22;17990;49.548;9.730;2023-06-10T01:06:03;14.00;99.90
16736;DHT22;17990;49.548;9.730;2023-06-10T01:08:49;14.00;99.90
16736;DHT22;17990;49.548;9.730;2023-06-10T01:11:26;14.00;99.90
16736;DHT22;17990;49.548;9.730;2023-06-10T01:13:55;14.00;99.90
16736;DHT22;17990;49.548;9.730;2023-06-10T01:16:24;13.90;99.90
16736;DHT22;17990;49.548;9.730;2023-06-10T01:18:51;13.90;99.90
16736;DHT22;17990;49.548;9.730;2023-06-10T01:21:22;13.90;99.90
16736;DHT22;17990;49.548;9.730;2023-06-10T01:23:51;14.00;99.90
16736;DHT22;17990;49.548;9.730;2023-06-10T01:26:20;13.90;99.90
16736;DHT22;17990;49.548;9.730;2023-06-10T01:28:51;13.90;99.90
16736;DHT22;17990;49.548;9.730;2023-06-10T01:31:30;13.90;99.90
16736;DHT22;17990;49.548;9.730;2023-06-10T01:34:05;13.80;99.90
16736;DHT22;17990;49.548;9.730;2023-06-10T01:36:36;13.80;99.90
16736;DHT22;17990;49.548;9.730;2023-06-10T01:39:04;13.80;99.90
16736;DHT22;17990;49.548;9.730;2023-06-10T01:41:32;13.80;99.90
16736;DHT22;17990;49.548;9.730;2023-06-10T01:44:00;13.80;99.90
16736;DHT22;17990;49.548;9.730;2023-06-10T01:46:28;13.70;99.90
16736;DHT22;17990;49.548;9.730;2023-06-10T01:48:55;13.70;99.90
16736;DHT22;17990;49.548;9.730;2023-06-10T01:51:22;13.70;99.90
16736;DHT22;17990;49.548;9.730;2023-06-10T01:53:50;13.70;99.90
16736;DHT22;17990;49.548;9.730;2023-06-10T01:56:17;13.60;99.90
16736;DHT22;17990;49.548;9.730;2023-06-10T01:58:45;13.60;99.90
16736;DHT22;17990;49.548;9.730;2023-06-10T02:01:12;13.60;99.90
16736;DHT22;17990;49.548;9.730;2023-06-10T02:03:39;13.60;99.90
16736;DHT22;17990;49.548;9.730;2023-06-10T02:06:06;13.60;99.90
16736;DHT22;17990;49.548;9.730;2023-06-10T02:08:33;13.50;99.90
16736;DHT22;17990;49.548;9.730;2023-06-10T02:11:02;13.50;99.90
16736;DHT22;17990;49.548;9.730;2023-06-10T02:13:29;13.40;99.90
16736;DHT22;17990;49.548;9.730;2023-06-10T02:15:56;13.40;99.90
16736;DHT22;17990;49.548;9.730;2023-06-10T02:18:22;13.40;99.90
16736;DHT22;17990;49.548;9.730;2023-06-10T02:20:49;13.40;99.90
16736;DHT22;17990;49.548;9.730;2023-06-10T02:23:16;13.40;99.90
16736;DHT22;17990;49.548;9.730;2023-06-10T02:25:43;13.30;99.90
16736;DHT22;17990;49.548;9.730;2023-06-10T02:28:11;13.30;99.90
16736;DHT22;17990;49.548;9.730;2023-06-10T02:30:39;13.30;99.90
16736;DHT22;17990;49.548;9.730;2023-06-10T02:33:07;13.20;99.90
16736;DHT22;17990;49.548;9.730;2023-06-10T02:35:36;13.20;99.90
16736;DHT22;17990;49.548;9.730;2023-06-10T02:38:03;13.20;99.90
16736;DHT22;17990;49.548;9.730;2023-06-10T02:40:30;13.10;99.90
16736;DHT22;17990;49.548;9.730;2023-06-10T02:42:57;13.10;99.90
16736;DHT22;17990;49.548;9.730;2023-06-10T02:45:26;13.00;99.90
16736;DHT22;17990;49.548;9.730;2023-06-10T02:47:52;13.00;99.90
16736;DHT22;17990;49.548;9.730;2023-06-10T02:50:20;13.00;99.90
16736;DHT22;17990;49.548;9.730;2023-06-10T02:52:47;13.00;99.90
16736;DHT22;17990;49.548;9.730;2023-06-10T02:55:14;13.00;99.90
16736;DHT22;17990;49.548;9.730;2023-06-10T02:57:41;13.00;99.90
16736;DHT22;17990;49.548;9.730;2023-06-10T03:00:09;13.00;99.90
16736;DHT22;17990;49.548;9.730;2023-06-10T03:02:38;13.00;99.90
16736;DHT22;17990;49.548;9.730;2023-06-10T03:05:06;13.00;99.90
16736;DHT22;17990;49.548;9.730;2023-06-10T03:07:36;12.90;99.90
16736;DHT22;17990;49.548;9.730;2023-06-10T03:10:04;12.80;99.90
16736;DHT22;17990;49.548;9.730;2023-06-10T03:12:31;12.80;99.90
16736;DHT22;17990;49.548;9.730;2023-06-10T03:14:58;12.80;99.90
16736;DHT22;17990;49.548;9.730;2023-06-10T03:17:25;12.80;99.90
16736;DHT22;17990;49.548;9.730;2023-06-10T03:19:53;12.80;99.90
16736;DHT22;17990;49.548;9.730;2023-06-10T03:22:21;12.80;99.90
16736;DHT22;17990;49.548;9.730;2023-06-10T03:24:48;12.80;99.90
16736;DHT22;17990;49.548;9.730;2023-06-10T03:27:16;12.80;99.90
16736;DHT22;17990;49.548;9.730;2023-06-10T03:29:43;12.80;99.90
16736;DHT22;17990;49.548;9.730;2023-06-10T03:32:10;12.80;99.90
16736;DHT22;17990;49.548;9.730;2023-06-10T03:34:37;12.90;99.90
16736;DHT22;17990;49.548;9.730;2023-06-10T03:37:05;12.80;99.90
16736;DHT22;17990;49.548;9.730;2023-06-10T03:39:32;12.60;99.90
16736;DHT22;17990;49.548;9.730;2023-06-10T03:41:59;12.60;99.90
16736;DHT22;17990;49.548;9.730;2023-06-10T03:44:26;12.60;99.90
16736;DHT22;17990;49.548;9.730;2023-06-10T03:46:53;12.70;99.90
16736;DHT22;17990;49.548;9.730;2023-06-10T03:49:20;12.70;99.90
16736;DHT22;17990;49.548;9.730;2023-06-10T03:51:54;12.80;99.90
16736;DHT22;17990;49.548;9.730;2023-06-10T03:54:23;12.90;99.90
16736;DHT22;17990;49.548;9.730;2023-06-10T03:56:53;12.90;99.90
16736;DHT22;17990;49.548;9.730;2023-06-10T03:59:20;12.90;99.90
16736;DHT22;17990;49.548;9.730;2023-06-10T04:01:47;12.90;99.90
16736;DHT22;17990;49.548;9.730;2023-06-10T04:04:14;13.00;99.90
16736;DHT22;17990;49.548;9.730;2023-06-10T04:06:43;13.00;99.90
16736;DHT22;17990;49.548;9.730;2023-06-10T04:09:10;13.10;99.90
16736;DHT22;17990;49.548;9.730;2023-06-10T04:11:43;13.20;99.90
16736;DHT22;17990;49.548;9.730;2023-06-10T04:14:10;13.20;99.90
16736;DHT22;17990;49.548;9.730;2023-06-10T04:16:41;13.30;99.90
16736;DHT22;17990;49.548;9.730;2023-06-10T04:19:12;13.40;99.90
16736;DHT22;17990;49.548;9.730;2023-06-10T04:21:39;13.50;99.90
16736;DHT22;17990;49.548;9.730;2023-06-10T04:24:06;13.50;99.90
16736;DHT22;17990;49.548;9.730;2023-06-10T04:26:35;13.50;99.90
16736;DHT22;17990;49.548;9.730;2023-06-10T04:29:03;13.60;99.90
16736;DHT22;17990;49.548;9.730;2023-06-10T04:31:30;13.70;99.90
16736;DHT22;17990;49.548;9.730;2023-06-10T04:33:59;13.80;99.90
16736;DHT22;17990;49.548;9.730;2023-06-10T04:36:29;13.70;99.90
16736;DHT22;17990;49.548;9.730;2023-06-10T04:38:56;13.80;99.90
16736;DHT22;17990;49.548;9.730;2023-06-10T04:41:23;13.80;99.90
16736;DHT22;17990;49.548;9.730;2023-06-10T04:43:51;13.90;99.90
16736;DHT22;17990;49.548;9.730;2023-06-10T04:46:20;14.00;99.90
16736;DHT22;17990;49.548;9.730;2023-06-10T04:48:47;14.10;99.90
16736;DHT22;17990;49.548;9.730;2023-06-10T04:51:14;14.20;99.90
16736;DHT22;17990;49.548;9.730;2023-06-10T04:53:43;14.40;99.90
16736;DHT22;17990;49.548;9.730;2023-06-10T04:56:10;14.40;99.90
16736;DHT22;17990;49.548;9.730;2023-06-10T04:58:37;14.50;99.90
16736;DHT22;17990;49.548;9.730;2023-06-10T05:01:04;14.60;99.90
16736;DHT22;17990;49.548;9.730;2023-06-10T05:03:32;14.70;99.90
16736;DHT22;17990;49.548;9.730;2023-06-10T05:06:02;14.70;99.90
16736;DHT22;17990;49.548;9.730;2023-06-10T05:08:29;14.80;99.90
16736;DHT22;17990;49.548;9.730;2023-06-10T05:11:03;14.90;99.90
16736;DHT22;17990;49.548;9.730;2023-06-10T05:13:30;14.90;99.90
16736;DHT22;17990;49.548;9.730;2023-06-10T05:15:57;15.00;99.90
16736;DHT22;17990;49.548;9.730;2023-06-10T05:18:24;15.40;99.90
16736;DHT22;17990;49.548;9.730;2023-06-10T05:20:53;18.20;99.90
16736;DHT22;17990;49.548;9.730;2023-06-10T05:23:20;20.80;99.90
16736;DHT22;17990;49.548;9.730;2023-06-10T05:25:47;22.70;99.90
16736;DHT22;17990;49.548;9.730;2023-06-10T05:28:14;24.40;99.90
16736;DHT22;17990;49.548;9.730;2023-06-10T05:30:41;25.90;99.90
16736;DHT22;17990;49.548;9.730;2023-06-10T05:33:08;27.20;97.30
16736;DHT22;17990;49.548;9.730;2023-06-10T05:35:35;28.10;93.90
16736;DHT22;17990;49.548;9.730;2023-06-10T05:38:03;28.80;92.00
16736;DHT22;17990;49.548;9.730;2023-06-10T05:40:30;30.00;89.00
16736;DHT22;17990;49.548;9.730;2023-06-10T05:42:57;31.00;83.50
16736;DHT22;17990;49.548;9.730;2023-06-10T05:45:24;31.20;80.00
16736;DHT22;17990;49.548;9.730;2023-06-10T05:47:51;31.60;77.50
16736;DHT22;17990;49.548;9.730;2023-06-10T05:50:17;32.70;73.50
16736;DHT22;17990;49.548;9.730;2023-06-10T05:52:44;33.40;70.60
16736;DHT22;17990;49.548;9.730;2023-06-10T05:55:12;33.60;68.30
16736;DHT22;17990;49.548;9.730;2023-06-10T05:57:41;34.10;66.40
16736;DHT22;17990;49.548;9.730;2023-06-10T06:00:09;34.40;64.30
16736;DHT22;17990;49.548;9.730;2023-06-10T06:02:36;34.80;63.60
16736;DHT22;17990;49.548;9.730;2023-06-10T06:05:03;34.90;62.00
16736;DHT22;17990;49.548;9.730;2023-06-10T06:07:30;35.20;61.30
16736;DHT22;17990;49.548;9.730;2023-06-10T06:09:57;35.90;59.60
16736;DHT22;17990;49.548;9.730;2023-06-10T06:12:25;35.30;59.40
16736;DHT22;17990;49.548;9.730;2023-06-10T06:14:52;35.90;58.60
16736;DHT22;17990;49.548;9.730;2023-06-10T06:17:19;36.70;57.10
16736;DHT22;17990;49.548;9.730;2023-06-10T06:19:46;36.50;56.10
16736;DHT22;17990;49.548;9.730;2023-06-10T06:22:13;37.10;55.40
16736;DHT22;17990;49.548;9.730;2023-06-10T06:24:40;37.60;54.70
16736;DHT22;17990;49.548;9.730;2023-06-10T06:27:07;37.80;54.20
16736;DHT22;17990;49.548;9.730;2023-06-10T06:29:35;38.00;53.60
16736;DHT22;17990;49.548;9.730;2023-06-10T06:32:02;37.80;52.90
16736;DHT22;17990;49.548;9.730;2023-06-10T06:34:29;38.00;52.90
16736;DHT22;17990;49.548;9.730;2023-06-10T06:36:57;38.10;52.70
16736;DHT22;17990;49.548;9.730;2023-06-10T06:39:23;38.60;51.70
16736;DHT22;17990;49.548;9.730;2023-06-10T06:41:51;37.80;51.90
16736;DHT22;17990;49.548;9.730;2023-06-10T06:44:18;38.20;51.70
16736;DHT22;17990;49.548;9.730;2023-06-10T06:46:46;38.50;51.40
16736;DHT22;17990;49.548;9.730;2023-06-10T06:49:13;38.70;50.70
16736;DHT22;17990;49.548;9.730;2023-06-10T06:51:40;39.20;50.30
16736;DHT22;17990;49.548;9.730;2023-06-10T06:54:07;39.00;50.50
16736;DHT22;17990;49.548;9.730;2023-06-10T06:56:34;39.40;50.10
16736;DHT22;17990;49.548;9.730;2023-06-10T06:59:01;39.70;48.80
16736;DHT22;17990;49.548;9.730;2023-06-10T07:01:27;39.50;49.10
16736;DHT22;17990;49.548;9.730;2023-06-10T07:03:56;39.50;49.00
16736;DHT22;17990;49.548;9.730;2023-06-10T07:06:22;40.20;48.20
16736;DHT22;17990;49.548;9.730;2023-06-10T07:08:50;40.70;47.70
16736;DHT22;17990;49.548;9.730;2023-06-10T07:11:17;40.70;47.20
16736;DHT22;17990;49.548;9.730;2023-06-10T07:13:44;40.40;47.60
16736;DHT22;17990;49.548;9.730;2023-06-10T07:16:11;40.90;47.30
16736;DHT22;17990;49.548;9.730;2023-06-10T07:18:37;40.40;47.70
16736;DHT22;17990;49.548;9.730;2023-06-10T07:21:05;40.90;46.70
16736;DHT22;17990;49.548;9.730;2023-06-10T07:23:32;40.10;47.40
16736;DHT22;17990;49.548;9.730;2023-06-10T07:25:59;40.40;47.20
16736;DHT22;17990;49.548;9.730;2023-06-10T07:28:26;39.00;48.60
16736;DHT22;17990;49.548;9.730;2023-06-10T07:30:53;37.60;50.10
16736;DHT22;17990;49.548;9.730;2023-06-10T07:33:20;38.00;49.80
16736;DHT22;17990;49.548;9.730;2023-06-10T07:35:46;38.00;49.10
16736;DHT22;17990;49.548;9.730;2023-06-10T07:38:15;38.90;48.50
16736;DHT22;17990;49.548;9.730;2023-06-10T07:40:41;38.10;48.90
16736;DHT22;17990;49.548;9.730;2023-06-10T07:43:08;38.60;48.50
16736;DHT22;17990;49.548;9.730;2023-06-10T07:45:35;37.60;49.80
16736;DHT22;17990;49.548;9.730;2023-06-10T07:48:02;35.50;52.40
16736;DHT22;17990;49.548;9.730;2023-06-10T07:50:29;34.30;55.10
16736;DHT22;17990;49.548;9.730;2023-06-10T07:52:56;34.50;54.50
16736;DHT22;17990;49.548;9.730;2023-06-10T07:55:24;35.70;53.00
16736;DHT22;17990;49.548;9.730;2023-06-10T07:57:51;36.10;52.40
16736;DHT22;17990;49.548;9.730;2023-06-10T08:00:19;35.70;53.60
16736;DHT22;17990;49.548;9.730;2023-06-10T08:02:46;36.40;52.40
16736;DHT22;17990;49.548;9.730;2023-06-10T08:05:13;36.20;53.00
16736;DHT22;17990;49.548;9.730;2023-06-10T08:07:40;36.30;52.80
16736;DHT22;17990;49.548;9.730;2023-06-10T08:10:07;35.00;54.40
16736;DHT22;17990;49.548;9.730;2023-06-10T08:12:36;35.20;54.20
16736;DHT22;17990;49.548;9.730;2023-06-10T08:15:04;35.90;53.40
16736;DHT22;17990;49.548;9.730;2023-06-10T08:17:32;35.20;54.40
16736;DHT22;17990;49.548;9.730;2023-06-10T08:19:58;34.40;55.60
16736;DHT22;17990;49.548;9.730;2023-06-10T08:22:25;33.40;57.20
16736;DHT22;17990;49.548;9.730;2023-06-10T08:24:54;33.10;57.90
16736;DHT22;17990;49.548;9.730;2023-06-10T08:27:21;33.00;58.10
16736;DHT22;17990;49.548;9.730;2023-06-10T08:30:02;33.20;57.60
16736;DHT22;17990;49.548;9.730;2023-06-10T08:32:30;33.20;57.60
16736;DHT22;17990;49.548;9.730;2023-06-10T08:34:56;32.40;58.70
16736;DHT22;17990;49.548;9.730;2023-06-10T08:37:24;31.90;60.00
16736;DHT22;17990;49.548;9.730;2023-06-10T08:39:51;32.40;60.10
16736;DHT22;17990;49.548;9.730;2023-06-10T08:42:22;32.10;59.80
16736;DHT22;17990;49.548;9.730;2023-06-10T08:44:53;31.10;62.00
16736;DHT22;17990;49.548;9.730;2023-06-10T08:47:23;31.00;62.50
16736;DHT22;17990;49.548;9.730;2023-06-10T08:49:51;30.70;64.10
16736;DHT22;17990;49.548;9.730;2023-06-10T08:52:20;30.90;62.90
16736;DHT22;17990;49.548;9.730;2023-06-10T08:54:49;30.90;62.20
16736;DHT22;17990;49.548;9.730;2023-06-10T08:57:19;30.10;63.40
16736;DHT22;17990;49.548;9.730;2023-06-10T08:59:47;30.00;64.30
16736;DHT22;17990;49.548;9.730;2023-06-10T09:02:15;30.30;63.60
16736;DHT22;17990;49.548;9.730;2023-06-10T09:04:47;29.60;65.60
16736;DHT22;17990;49.548;9.730;2023-06-10T09:07:15;29.10;66.40
16736;DHT22;17990;49.548;9.730;2023-06-10T09:09:43;29.20;66.50
16736;DHT22;17990;49.548;9.730;2023-06-10T09:12:14;29.00;67.00
16736;DHT22;17990;49.548;9.730;2023-06-10T09:14:41;29.10;65.90
16736;DHT22;17990;49.548;9.730;2023-06-10T09:17:08;28.80;66.70
16736;DHT22;17990;49.548;9.730;2023-06-10T09:19:35;29.30;66.20
16736;DHT22;17990;49.548;9.730;2023-06-10T09:22:05;29.90;65.40
16736;DHT22;17990;49.548;9.730;2023-06-10T09:24:32;29.60;66.60
16736;DHT22;17990;49.548;9.730;2023-06-10T09:27:03;29.40;65.60
16736;DHT22;17990;49.548;9.730;2023-06-10T09:29:32;29.80;65.70
16736;DHT22;17990;49.548;9.730;2023-06-10T09:32:09;29.60;65.00
16736;DHT22;17990;49.548;9.730;2023-06-10T09:34:36;29.50;66.10
16736;DHT22;17990;49.548;9.730;2023-06-10T09:37:04;29.40;65.50
16736;DHT22;17990;49.548;9.730;2023-06-10T09:39:31;29.10;66.30
16736;DHT22;17990;49.548;9.730;2023-06-10T09:41:58;29.40;66.60
16736;DHT22;17990;49.548;9.730;2023-06-10T09:44:25;29.30;67.20
16736;DHT22;17990;49.548;9.730;2023-06-10T09:46:52;28.60;68.50
16736;DHT22;17990;49.548;9.730;2023-06-10T09:49:20;28.30;69.60
16736;DHT22;17990;49.548;9.730;2023-06-10T09:51:50;28.00;68.30
16736;DHT22;17990;49.548;9.730;2023-06-10T09:54:20;28.10;69.90
16736;DHT22;17990;49.548;9.730;2023-06-10T09:56:47;28.30;68.60
16736;DHT22;17990;49.548;9.730;2023-06-10T09:59:15;28.30;68.20
16736;DHT22;17990;49.548;9.730;2023-06-10T10:01:42;28.10;67.80
16736;DHT22;17990;49.548;9.730;2023-06-10T10:04:09;28.10;68.20
16736;DHT22;17990;49.548;9.730;2023-06-10T10:06:36;28.00;67.90
16736;DHT22;17990;49.548;9.730;2023-06-10T10:09:04;27.60;67.90
16736;DHT22;17990;49.548;9.730;2023-06-10T10:11:33;27.30;69.20
16736;DHT22;17990;49.548;9.730;2023-06-10T10:14:04;27.20;69.60
16736;DHT22;17990;49.548;9.730;2023-06-10T10:16:35;27.10;68.40
16736;DHT22;17990;49.548;9.730;2023-06-10T10:19:07;27.00;68.60
16736;DHT22;17990;49.548;9.730;2023-06-10T10:21:40;27.00;68.80
16736;DHT22;17990;49.548;9.730;2023-06-10T10:24:16;27.30;68.40
16736;DHT22;17990;49.548;9.730;2023-06-10T10:26:48;26.90;68.30
16736;DHT22;17990;49.548;9.730;2023-06-10T10:29:22;26.90;69.00
16736;DHT22;17990;49.548;9.730;2023-06-10T10:31:51;27.10;68.70
16736;DHT22;17990;49.548;9.730;2023-06-10T10:34:21;27.20;69.50
16736;DHT22;17990;49.548;9.730;2023-06-10T10:36:51;27.40;69.80
16736;DHT22;17990;49.548;9.730;2023-06-10T10:39:19;27.60;67.60
16736;DHT22;17990;49.548;9.730;2023-06-10T10:41:47;27.60;68.00
16736;DHT22;17990;49.548;9.730;2023-06-10T10:44:15;27.30;69.10
16736;DHT22;17990;49.548;9.730;2023-06-10T10:46:43;27.40;69.10
16736;DHT22;17990;49.548;9.730;2023-06-10T10:49:12;27.50;69.30
16736;DHT22;17990;49.548;9.730;2023-06-10T10:51:54;27.50;68.80
16736;DHT22;17990;49.548;9.730;2023-06-10T10:54:29;27.40;69.70
16736;DHT22;17990;49.548;9.730;2023-06-10T10:57:18;27.50;67.40
16736;DHT22;17990;49.548;9.730;2023-06-10T10:59:52;27.80;67.10
16736;DHT22;17990;49.548;9.730;2023-06-10T11:02:36;27.80;67.90
16736;DHT22;17990;49.548;9.730;2023-06-10T11:05:10;27.80;67.40
16736;DHT22;17990;49.548;9.730;2023-06-10T11:07:38;28.10;66.70
16736;DHT22;17990;49.548;9.730;2023-06-10T11:10:11;28.10;68.40
16736;DHT22;17990;49.548;9.730;2023-06-10T11:12:50;28.00;66.30
16736;DHT22;17990;49.548;9.730;2023-06-10T11:15:25;28.50;66.20
16736;DHT22;17990;49.548;9.730;2023-06-10T11:18:10;28.50;65.30
16736;DHT22;17990;49.548;9.730;2023-06-10T11:20:45;28.60;66.00
16736;DHT22;17990;49.548;9.730;2023-06-10T11:23:38;28.40;67.40
16736;DHT22;17990;49.548;9.730;2023-06-10T11:26:17;28.90;66.10
16736;DHT22;17990;49.548;9.730;2023-06-10T11:29:07;29.10;64.60
16736;DHT22;17990;49.548;9.730;2023-06-10T11:31:43;29.00;65.00
16736;DHT22;17990;49.548;9.730;2023-06-10T11:34:12;29.40;65.60
16736;DHT22;17990;49.548;9.730;2023-06-10T11:36:41;29.10;65.70
16736;DHT22;17990;49.548;9.730;2023-06-10T11:39:11;29.20;66.70
16736;DHT22;17990;49.548;9.730;2023-06-10T11:41:39;29.30;64.70
16736;DHT22;17990;49.548;9.730;2023-06-10T11:44:11;29.20;64.70
16736;DHT22;17990;49.548;9.730;2023-06-10T11:46:39;29.20;65.00
16736;DHT22;17990;49.548;9.730;2023-06-10T11:49:07;29.10;65.90
16736;DHT22;17990;49.548;9.730;2023-06-10T11:51:35;29.60;65.00
16736;DHT22;17990;49.548;9.730;2023-06-10T11:54:04;30.00;64.20
16736;DHT22;17990;49.548;9.730;2023-06-10T11:56:32;30.20;63.80
16736;DHT22;17990;49.548;9.730;2023-06-10T11:59:00;29.90;63.60
16736;DHT22;17990;49.548;9.730;2023-06-10T12:01:32;29.80;63.00
16736;DHT22;17990;49.548;9.730;2023-06-10T12:04:02;29.80;64.10
16736;DHT22;17990;49.548;9.730;2023-06-10T12:06:41;29.70;65.00
16736;DHT22;17990;49.548;9.730;2023-06-10T12:09:14;29.80;64.90
16736;DHT22;17990;49.548;9.730;2023-06-10T12:11:42;29.70;64.10
16736;DHT22;17990;49.548;9.730;2023-06-10T12:14:10;29.30;65.10
16736;DHT22;17990;49.548;9.730;2023-06-10T12:16:38;29.00;65.30
16736;DHT22;17990;49.548;9.730;2023-06-10T12:19:05;29.50;64.70
16736;DHT22;17990;49.548;9.730;2023-06-10T12:21:36;29.30;65.00
16736;DHT22;17990;49.548;9.730;2023-06-10T12:24:06;29.30;65.20
16736;DHT22;17990;49.548;9.730;2023-06-10T12:26:36;28.90;65.20
16736;DHT22;17990;49.548;9.730;2023-06-10T12:29:19;28.90;65.20
16736;DHT22;17990;49.548;9.730;2023-06-10T12:32:00;29.20;65.00
16736;DHT22;17990;49.548;9.730;2023-06-10T12:34:33;29.40;65.70
16736;DHT22;17990;49.548;9.730;2023-06-10T12:37:02;29.00;66.20
16736;DHT22;17990;49.548;9.730;2023-06-10T12:39:31;29.00;66.20
16736;DHT22;17990;49.548;9.730;2023-06-10T12:41:59;28.90;65.40
16736;DHT22;17990;49.548;9.730;2023-06-10T12:44:34;28.90;65.20
16736;DHT22;17990;49.548;9.730;2023-06-10T12:47:08;29.20;64.30
16736;DHT22;17990;49.548;9.730;2023-06-10T12:49:37;29.50;63.40
16736;DHT22;17990;49.548;9.730;2023-06-10T12:52:05;29.60;62.60
16736;DHT22;17990;49.548;9.730;2023-06-10T12:54:32;29.50;62.80
16736;DHT22;17990;49.548;9.730;2023-06-10T12:57:00;29.50;63.80
16736;DHT22;17990;49.548;9.730;2023-06-10T12:59:27;29.90;61.50
16736;DHT22;17990;49.548;9.730;2023-06-10T13:01:54;30.10;61.50
16736;DHT22;17990;49.548;9.730;2023-06-10T13:04:23;30.60;60.50
16736;DHT22;17990;49.548;9.730;2023-06-10T13:06:50;30.60;60.20
16736;DHT22;17990;49.548;9.730;2023-06-10T13:09:16;30.70;59.50
16736;DHT22;17990;49.548;9.730;2023-06-10T13:11:43;30.70;59.70
16736;DHT22;17990;49.548;9.730;2023-06-10T13:14:10;30.80;59.60
16736;DHT22;17990;49.548;9.730;2023-06-10T13:16:37;30.80;59.40
16736;DHT22;17990;49.548;9.730;2023-06-10T13:19:05;30.90;59.50
16736;DHT22;17990;49.548;9.730;2023-06-10T13:21:33;30.80;59.40
16736;DHT22;17990;49.548;9.730;2023-06-10T13:24:01;30.70;60.20
16736;DHT22;17990;49.548;9.730;2023-06-10T13:26:28;30.60;60.50
16736;DHT22;17990;49.548;9.730;2023-06-10T13:28:55;30.50;60.60
16736;DHT22;17990;49.548;9.730;2023-06-10T13:31:22;30.50;60.30
16736;DHT22;17990;49.548;9.730;2023-06-10T13:33:49;30.50;60.70
16736;DHT22;17990;49.548;9.730;2023-06-10T13:36:16;30.40;60.60
16736;DHT22;17990;49.548;9.730;2023-06-10T13:38:44;30.00;61.70
16736;DHT22;17990;49.548;9.730;2023-06-10T13:41:13;29.70;62.80
16736;DHT22;17990;49.548;9.730;2023-06-10T13:43:40;29.60;63.60
16736;DHT22;17990;49.548;9.730;2023-06-10T13:46:06;29.70;64.00
16736;DHT22;17990;49.548;9.730;2023-06-10T13:48:33;30.00;62.70
16736;DHT22;17990;49.548;9.730;2023-06-10T13:51:00;29.90;63.60
16736;DHT22;17990;49.548;9.730;2023-06-10T13:53:27;29.60;64.80
16736;DHT22;17990;49.548;9.730;2023-06-10T13:55:55;29.90;64.00
16736;DHT22;17990;49.548;9.730;2023-06-10T13:58:22;29.70;64.30
16736;DHT22;17990;49.548;9.730;2023-06-10T14:00:49;30.00;63.00
16736;DHT22;17990;49.548;9.730;2023-06-10T14:03:16;30.00;62.00
16736;DHT22;17990;49.548;9.730;2023-06-10T14:05:43;30.20;62.00
16736;DHT22;17990;49.548;9.730;2023-06-10T14:08:10;30.20;62.40
16736;DHT22;17990;49.548;9.730;2023-06-10T14:10:37;30.10;62.60
16736;DHT22;17990;49.548;9.730;2023-06-10T14:13:05;30.20;62.90
16736;DHT22;17990;49.548;9.730;2023-06-10T14:15:32;30.60;62.10
16736;DHT22;17990;49.548;9.730;2023-06-10T14:17:59;30.80;62.40
16736;DHT22;17990;49.548;9.730;2023-06-10T14:20:26;30.40;63.10
16736;DHT22;17990;49.548;9.730;2023-06-10T14:22:56;30.00;64.20
16736;DHT22;17990;49.548;9.730;2023-06-10T14:25:24;29.80;64.60
16736;DHT22;17990;49.548;9.730;2023-06-10T14:27:51;29.90;64.00
16736;DHT22;17990;49.548;9.730;2023-06-10T14:30:19;29.90;63.70
16736;DHT22;17990;49.548;9.730;2023-06-10T14:32:46;29.80;64.30
16736;DHT22;17990;49.548;9.730;2023-06-10T14:35:13;29.80;64.50
16736;DHT22;17990;49.548;9.730;2023-06-10T14:37:40;29.80;63.80
16736;DHT22;17990;49.548;9.730;2023-06-10T14:40:08;29.90;64.30
16736;DHT22;17990;49.548;9.730;2023-06-10T14:42:35;30.40;63.80
16736;DHT22;17990;49.548;9.730;2023-06-10T14:45:02;30.50;62.90
16736;DHT22;17990;49.548;9.730;2023-06-10T14:47:32;30.10;63.70
16736;DHT22;17990;49.548;9.730;2023-06-10T14:49:59;29.90;64.50
16736;DHT22;17990;49.548;9.730;2023-06-10T14:52:25;29.80;65.40
16736;DHT22;17990;49.548;9.730;2023-06-10T14:54:52;30.00;64.80
16736;DHT22;17990;49.548;9.730;2023-06-10T14:57:19;30.30;63.90
16736;DHT22;17990;49.548;9.730;2023-06-10T14:59:46;30.30;64.00
16736;DHT22;17990;49.548;9.730;2023-06-10T15:02:13;29.80;64.80
16736;DHT22;17990;49.548;9.730;2023-06-10T15:04:41;29.50;65.30
16736;DHT22;17990;49.548;9.730;2023-06-10T15:07:08;29.70;65.00
16736;DHT22;17990;49.548;9.730;2023-06-10T15:09:35;29.70;65.60
16736;DHT22;17990;49.548;9.730;2023-06-10T15:12:02;29.60;65.80
16736;DHT22;17990;49.548;9.730;2023-06-10T15:14:31;29.60;65.60
16736;DHT22;17990;49.548;9.730;2023-06-10T15:16:57;29.60;65.00
16736;DHT22;17990;49.548;9.730;2023-06-10T15:19:25;29.60;64.40
16736;DHT22;17990;49.548;9.730;2023-06-10T15:21:53;29.50;63.80
16736;DHT22;17990;49.548;9.730;2023-06-10T15:24:20;29.40;64.10
16736;DHT22;17990;49.548;9.730;2023-06-10T15:26:47;29.40;63.80
16736;DHT22;17990;49.548;9.730;2023-06-10T15:29:14;29.30;65.20
16736;DHT22;17990;49.548;9.730;2023-06-10T15:31:41;29.40;64.60
16736;DHT22;17990;49.548;9.730;2023-06-10T15:34:08;29.60;63.70
16736;DHT22;17990;49.548;9.730;2023-06-10T15:36:35;29.80;64.10
16736;DHT22;17990;49.548;9.730;2023-06-10T15:39:05;29.90;63.50